-> Other stations

1455

Speed(max): 0(0)knots
Direction:234° ( SW)
Temperature: 20.6°C
Arrived: 2026-09-04 02:33:22 CEST

Past data:
hh:mmknots
Dir (°)
°C
02:31 0 0 SW(234) 20.8
02:29 0 0 SW(234) 20.8
02:27 0 0 SW(233) 20.7
02:25 0 0 SW(234) 21.0
02:23 0 0 SW(234) 21.1
02:21 0 0 SW(234) 21.2
02:19 0 1.1 SW(234) 21.3
02:17 0 0 SW(234) 21.1
02:15 0 0 SW(234) 21.0
02:13 0 0 SW(233) 21.2
02:11 0 0 SW(234) 21.1
02:09 0 0 SW(234) 21.0
02:07 0 1.1 SW(234) 21.1
02:05 0.5 1.6 SW(233) 21.3
15 min. averages:
hh:mmknots
Dir (°)
°C
02:30 0 1.1 SW(234) 21.0
02:15 0 1.6 SW(233) 21.3
02:00 1.1 2.7 SW(232) 21.8
01:45 1.1 2.7 SW(230) 22.1
01:30 1.1 2.7 WSW(238) 22.1
01:15 3.2 5.4 WSW(249) 22.7
01:00 0.5 2.7 WSW(245) 21.7
00:45 2.7 4.3 W(271) 21.3
00:30 1.6 3.8 SW(219) 20.7
00:15 0.5 2.7 SW(219) 21.4
00:00 1.1 4.3 SW(215) 22.0
23:45 1.1 2.7 SSE(164) 22.4
23:30 2.2 4.3 WNW(284) 23.0
23:15 0.5 2.2 WNW(296) 23.1
23:00 0 1.6 WNW(296) 23.1
Stations at HR:
1455
-> Other regions

Desktop view
Data provided by Holfuy.
© Holfuy Weather 2026